sensor_id;sensor_type;location;lat;lon;timestamp;temperature;humidity
14409;DHT22;7289;50.706;4.992;2022-10-18T00:01:07;16.70;99.90
14409;DHT22;7289;50.706;4.992;2022-10-18T00:03:36;16.60;99.90
14409;DHT22;7289;50.706;4.992;2022-10-18T00:06:05;16.60;99.90
14409;DHT22;7289;50.706;4.992;2022-10-18T00:08:35;16.60;99.90
14409;DHT22;7289;50.706;4.992;2022-10-18T00:11:04;16.60;99.90
14409;DHT22;7289;50.706;4.992;2022-10-18T00:13:33;16.60;99.90
14409;DHT22;7289;50.706;4.992;2022-10-18T00:16:04;16.70;99.90
14409;DHT22;7289;50.706;4.992;2022-10-18T00:18:34;16.70;99.90
14409;DHT22;7289;50.706;4.992;2022-10-18T00:21:04;16.70;99.90
14409;DHT22;7289;50.706;4.992;2022-10-18T00:23:34;16.70;99.90
14409;DHT22;7289;50.706;4.992;2022-10-18T00:26:04;16.70;99.90
14409;DHT22;7289;50.706;4.992;2022-10-18T00:28:34;16.70;99.90
14409;DHT22;7289;50.706;4.992;2022-10-18T00:31:10;16.70;99.90
14409;DHT22;7289;50.706;4.992;2022-10-18T00:33:41;16.70;99.90
14409;DHT22;7289;50.706;4.992;2022-10-18T00:36:09;16.70;99.90
14409;DHT22;7289;50.706;4.992;2022-10-18T00:38:38;16.70;99.90
14409;DHT22;7289;50.706;4.992;2022-10-18T00:41:09;16.70;99.90
14409;DHT22;7289;50.706;4.992;2022-10-18T00:43:51;16.70;99.90
14409;DHT22;7289;50.706;4.992;2022-10-18T00:46:20;16.70;99.90
14409;DHT22;7289;50.706;4.992;2022-10-18T00:48:51;16.70;99.90
14409;DHT22;7289;50.706;4.992;2022-10-18T00:51:21;16.70;99.90
14409;DHT22;7289;50.706;4.992;2022-10-18T00:53:50;16.70;99.90
14409;DHT22;7289;50.706;4.992;2022-10-18T00:56:19;16.70;99.90
14409;DHT22;7289;50.706;4.992;2022-10-18T00:58:48;16.70;99.90
14409;DHT22;7289;50.706;4.992;2022-10-18T01:01:18;16.70;99.90
14409;DHT22;7289;50.706;4.992;2022-10-18T01:03:53;16.70;99.90
14409;DHT22;7289;50.706;4.992;2022-10-18T01:06:22;16.70;99.90
14409;DHT22;7289;50.706;4.992;2022-10-18T01:09:01;16.70;99.90
14409;DHT22;7289;50.706;4.992;2022-10-18T01:11:50;16.70;99.90
14409;DHT22;7289;50.706;4.992;2022-10-18T01:14:32;16.70;99.90
14409;DHT22;7289;50.706;4.992;2022-10-18T01:17:07;16.80;99.90
14409;DHT22;7289;50.706;4.992;2022-10-18T01:20:20;16.70;99.90
14409;DHT22;7289;50.706;4.992;2022-10-18T01:22:55;16.80;99.90
14409;DHT22;7289;50.706;4.992;2022-10-18T01:25:38;16.80;99.90
14409;DHT22;7289;50.706;4.992;2022-10-18T01:28:17;16.70;99.90
14409;DHT22;7289;50.706;4.992;2022-10-18T01:30:52;16.70;99.90
14409;DHT22;7289;50.706;4.992;2022-10-18T01:33:27;16.70;99.90
14409;DHT22;7289;50.706;4.992;2022-10-18T01:36:01;16.70;99.90
14409;DHT22;7289;50.706;4.992;2022-10-18T01:38:32;16.70;99.90
14409;DHT22;7289;50.706;4.992;2022-10-18T01:41:02;16.70;99.90
14409;DHT22;7289;50.706;4.992;2022-10-18T01:43:33;16.80;99.90
14409;DHT22;7289;50.706;4.992;2022-10-18T01:46:05;16.80;99.90
14409;DHT22;7289;50.706;4.992;2022-10-18T01:48:37;16.80;99.90
14409;DHT22;7289;50.706;4.992;2022-10-18T01:51:06;16.80;99.90
14409;DHT22;7289;50.706;4.992;2022-10-18T01:53:34;16.80;99.90
14409;DHT22;7289;50.706;4.992;2022-10-18T01:56:15;16.90;99.90
14409;DHT22;7289;50.706;4.992;2022-10-18T01:58:51;16.80;99.90
14409;DHT22;7289;50.706;4.992;2022-10-18T02:01:28;16.80;99.90
14409;DHT22;7289;50.706;4.992;2022-10-18T02:04:06;16.80;99.90
14409;DHT22;7289;50.706;4.992;2022-10-18T02:06:41;16.80;99.90
14409;DHT22;7289;50.706;4.992;2022-10-18T02:09:14;16.80;99.90
14409;DHT22;7289;50.706;4.992;2022-10-18T02:11:47;16.80;99.90
14409;DHT22;7289;50.706;4.992;2022-10-18T02:14:18;16.90;99.90
14409;DHT22;7289;50.706;4.992;2022-10-18T02:16:53;16.80;99.90
14409;DHT22;7289;50.706;4.992;2022-10-18T02:19:26;16.80;99.90
14409;DHT22;7289;50.706;4.992;2022-10-18T02:21:57;16.90;99.90
14409;DHT22;7289;50.706;4.992;2022-10-18T02:24:30;16.90;99.90
14409;DHT22;7289;50.706;4.992;2022-10-18T02:27:00;16.80;99.90
14409;DHT22;7289;50.706;4.992;2022-10-18T02:29:29;16.90;99.90
14409;DHT22;7289;50.706;4.992;2022-10-18T02:32:04;16.90;99.90
14409;DHT22;7289;50.706;4.992;2022-10-18T02:34:37;17.00;99.90
14409;DHT22;7289;50.706;4.992;2022-10-18T02:37:08;16.90;99.90
14409;DHT22;7289;50.706;4.992;2022-10-18T02:39:41;17.00;99.90
14409;DHT22;7289;50.706;4.992;2022-10-18T02:42:11;17.00;99.90
14409;DHT22;7289;50.706;4.992;2022-10-18T02:44:40;17.00;99.90
14409;DHT22;7289;50.706;4.992;2022-10-18T02:47:11;17.00;99.90
14409;DHT22;7289;50.706;4.992;2022-10-18T02:49:39;17.00;99.90
14409;DHT22;7289;50.706;4.992;2022-10-18T02:52:07;17.00;99.90
14409;DHT22;7289;50.706;4.992;2022-10-18T02:54:36;17.00;99.90
14409;DHT22;7289;50.706;4.992;2022-10-18T02:57:04;17.00;99.90
14409;DHT22;7289;50.706;4.992;2022-10-18T02:59:32;17.00;99.90
14409;DHT22;7289;50.706;4.992;2022-10-18T03:02:00;17.00;99.90
14409;DHT22;7289;50.706;4.992;2022-10-18T03:04:30;17.10;99.90
14409;DHT22;7289;50.706;4.992;2022-10-18T03:06:58;17.00;99.90
14409;DHT22;7289;50.706;4.992;2022-10-18T03:09:26;17.00;99.90
14409;DHT22;7289;50.706;4.992;2022-10-18T03:11:54;17.00;99.90
14409;DHT22;7289;50.706;4.992;2022-10-18T03:14:23;17.00;99.90
14409;DHT22;7289;50.706;4.992;2022-10-18T03:16:51;17.00;99.90
14409;DHT22;7289;50.706;4.992;2022-10-18T03:19:19;17.00;99.90
14409;DHT22;7289;50.706;4.992;2022-10-18T03:21:49;17.00;99.90
14409;DHT22;7289;50.706;4.992;2022-10-18T03:24:17;16.90;99.90
14409;DHT22;7289;50.706;4.992;2022-10-18T03:26:45;17.00;99.90
14409;DHT22;7289;50.706;4.992;2022-10-18T03:29:13;17.00;99.90
14409;DHT22;7289;50.706;4.992;2022-10-18T03:31:42;17.00;99.90
14409;DHT22;7289;50.706;4.992;2022-10-18T03:34:10;16.90;99.90
14409;DHT22;7289;50.706;4.992;2022-10-18T03:36:38;17.00;99.90
14409;DHT22;7289;50.706;4.992;2022-10-18T03:39:09;17.00;99.90
14409;DHT22;7289;50.706;4.992;2022-10-18T03:41:38;17.00;99.90
14409;DHT22;7289;50.706;4.992;2022-10-18T03:44:06;17.00;99.90
14409;DHT22;7289;50.706;4.992;2022-10-18T03:46:34;17.00;99.90
14409;DHT22;7289;50.706;4.992;2022-10-18T03:49:02;17.00;99.90
14409;DHT22;7289;50.706;4.992;2022-10-18T03:51:31;17.00;99.90
14409;DHT22;7289;50.706;4.992;2022-10-18T03:53:59;17.00;99.90
14409;DHT22;7289;50.706;4.992;2022-10-18T03:56:29;17.00;99.90
14409;DHT22;7289;50.706;4.992;2022-10-18T03:58:57;17.00;99.90
14409;DHT22;7289;50.706;4.992;2022-10-18T04:01:25;17.00;99.90
14409;DHT22;7289;50.706;4.992;2022-10-18T04:03:53;17.10;99.90
14409;DHT22;7289;50.706;4.992;2022-10-18T04:06:22;17.10;99.90
14409;DHT22;7289;50.706;4.992;2022-10-18T04:08:50;17.10;99.90
14409;DHT22;7289;50.706;4.992;2022-10-18T04:11:18;17.10;99.90
14409;DHT22;7289;50.706;4.992;2022-10-18T04:13:48;17.10;99.90
14409;DHT22;7289;50.706;4.992;2022-10-18T04:16:16;17.10;99.90
14409;DHT22;7289;50.706;4.992;2022-10-18T04:18:45;17.10;99.90
14409;DHT22;7289;50.706;4.992;2022-10-18T04:21:13;17.10;99.90
14409;DHT22;7289;50.706;4.992;2022-10-18T04:23:41;17.20;99.90
14409;DHT22;7289;50.706;4.992;2022-10-18T04:26:10;17.20;99.90
14409;DHT22;7289;50.706;4.992;2022-10-18T04:28:38;17.10;99.90
14409;DHT22;7289;50.706;4.992;2022-10-18T04:31:10;17.10;99.90
14409;DHT22;7289;50.706;4.992;2022-10-18T04:33:38;17.10;99.90
14409;DHT22;7289;50.706;4.992;2022-10-18T04:36:07;17.10;99.90
14409;DHT22;7289;50.706;4.992;2022-10-18T04:38:35;17.10;99.90
14409;DHT22;7289;50.706;4.992;2022-10-18T04:41:03;17.10;99.90
14409;DHT22;7289;50.706;4.992;2022-10-18T04:43:31;17.10;99.90
14409;DHT22;7289;50.706;4.992;2022-10-18T04:46:00;17.10;99.90
14409;DHT22;7289;50.706;4.992;2022-10-18T04:48:30;17.10;99.90
14409;DHT22;7289;50.706;4.992;2022-10-18T04:50:58;17.10;99.90
14409;DHT22;7289;50.706;4.992;2022-10-18T04:53:26;17.10;99.90
14409;DHT22;7289;50.706;4.992;2022-10-18T04:55:55;17.10;99.90
14409;DHT22;7289;50.706;4.992;2022-10-18T04:58:23;17.10;99.90
14409;DHT22;7289;50.706;4.992;2022-10-18T05:00:51;17.10;99.90
14409;DHT22;7289;50.706;4.992;2022-10-18T05:03:19;17.10;99.90
14409;DHT22;7289;50.706;4.992;2022-10-18T05:05:49;17.10;99.90
14409;DHT22;7289;50.706;4.992;2022-10-18T05:08:33;17.10;99.90
14409;DHT22;7289;50.706;4.992;2022-10-18T05:11:02;17.10;99.90
14409;DHT22;7289;50.706;4.992;2022-10-18T05:13:31;17.00;99.90
14409;DHT22;7289;50.706;4.992;2022-10-18T05:15:59;16.90;99.90
14409;DHT22;7289;50.706;4.992;2022-10-18T05:18:28;16.90;99.90
14409;DHT22;7289;50.706;4.992;2022-10-18T05:20:58;17.00;99.90
14409;DHT22;7289;50.706;4.992;2022-10-18T05:23:26;17.00;99.90
14409;DHT22;7289;50.706;4.992;2022-10-18T05:26:00;17.00;99.90
14409;DHT22;7289;50.706;4.992;2022-10-18T05:28:28;17.00;99.90
14409;DHT22;7289;50.706;4.992;2022-10-18T05:31:12;17.10;99.90
14409;DHT22;7289;50.706;4.992;2022-10-18T05:33:40;17.00;99.90
14409;DHT22;7289;50.706;4.992;2022-10-18T05:36:10;17.00;99.90
14409;DHT22;7289;50.706;4.992;2022-10-18T05:38:39;17.00;99.90
14409;DHT22;7289;50.706;4.992;2022-10-18T05:41:09;17.00;99.90
14409;DHT22;7289;50.706;4.992;2022-10-18T05:43:40;17.00;99.90
14409;DHT22;7289;50.706;4.992;2022-10-18T05:46:09;17.00;99.90
14409;DHT22;7289;50.706;4.992;2022-10-18T05:48:42;17.00;99.90
14409;DHT22;7289;50.706;4.992;2022-10-18T05:51:13;16.90;99.90
14409;DHT22;7289;50.706;4.992;2022-10-18T05:53:42;17.00;99.90
14409;DHT22;7289;50.706;4.992;2022-10-18T05:56:10;16.90;99.90
14409;DHT22;7289;50.706;4.992;2022-10-18T05:58:39;16.90;99.90
14409;DHT22;7289;50.706;4.992;2022-10-18T06:01:09;16.90;99.90
14409;DHT22;7289;50.706;4.992;2022-10-18T06:03:37;16.80;99.90
14409;DHT22;7289;50.706;4.992;2022-10-18T06:06:08;16.80;99.90
14409;DHT22;7289;50.706;4.992;2022-10-18T06:08:40;16.80;99.90
14409;DHT22;7289;50.706;4.992;2022-10-18T06:11:10;16.70;99.90
14409;DHT22;7289;50.706;4.992;2022-10-18T06:13:39;16.70;99.90
14409;DHT22;7289;50.706;4.992;2022-10-18T06:16:09;16.70;99.90
14409;DHT22;7289;50.706;4.992;2022-10-18T06:18:38;16.70;99.90
14409;DHT22;7289;50.706;4.992;2022-10-18T06:21:06;16.70;99.90
14409;DHT22;7289;50.706;4.992;2022-10-18T06:23:35;16.60;99.90
14409;DHT22;7289;50.706;4.992;2022-10-18T06:26:07;16.60;99.90
14409;DHT22;7289;50.706;4.992;2022-10-18T06:28:36;16.60;99.90
14409;DHT22;7289;50.706;4.992;2022-10-18T06:31:05;16.60;99.90
14409;DHT22;7289;50.706;4.992;2022-10-18T06:33:34;16.60;99.90
14409;DHT22;7289;50.706;4.992;2022-10-18T06:36:04;16.50;99.90
14409;DHT22;7289;50.706;4.992;2022-10-18T06:38:33;16.60;99.90
14409;DHT22;7289;50.706;4.992;2022-10-18T06:41:05;16.60;99.90
14409;DHT22;7289;50.706;4.992;2022-10-18T06:43:33;16.70;99.90
14409;DHT22;7289;50.706;4.992;2022-10-18T06:46:03;16.70;99.90
14409;DHT22;7289;50.706;4.992;2022-10-18T06:48:34;16.70;99.90
14409;DHT22;7289;50.706;4.992;2022-10-18T06:51:04;16.70;99.90
14409;DHT22;7289;50.706;4.992;2022-10-18T06:53:35;16.70;99.90
14409;DHT22;7289;50.706;4.992;2022-10-18T06:56:20;16.70;99.90
14409;DHT22;7289;50.706;4.992;2022-10-18T06:58:49;16.80;99.90
14409;DHT22;7289;50.706;4.992;2022-10-18T07:01:18;16.80;99.90
14409;DHT22;7289;50.706;4.992;2022-10-18T07:03:47;16.90;99.90
14409;DHT22;7289;50.706;4.992;2022-10-18T07:06:17;16.90;99.90
14409;DHT22;7289;50.706;4.992;2022-10-18T07:08:46;17.00;99.90
14409;DHT22;7289;50.706;4.992;2022-10-18T07:11:17;17.00;99.90
14409;DHT22;7289;50.706;4.992;2022-10-18T07:13:47;17.10;99.90
14409;DHT22;7289;50.706;4.992;2022-10-18T07:16:17;17.10;99.90
14409;DHT22;7289;50.706;4.992;2022-10-18T07:18:47;17.20;99.90
14409;DHT22;7289;50.706;4.992;2022-10-18T07:21:18;17.30;99.90
14409;DHT22;7289;50.706;4.992;2022-10-18T07:23:47;17.40;99.90
14409;DHT22;7289;50.706;4.992;2022-10-18T07:26:17;17.60;99.90
14409;DHT22;7289;50.706;4.992;2022-10-18T07:28:50;17.70;99.90
14409;DHT22;7289;50.706;4.992;2022-10-18T07:31:21;17.90;99.90
14409;DHT22;7289;50.706;4.992;2022-10-18T07:33:49;18.10;99.90
14409;DHT22;7289;50.706;4.992;2022-10-18T07:36:18;18.30;99.90
14409;DHT22;7289;50.706;4.992;2022-10-18T07:38:47;18.50;99.90
14409;DHT22;7289;50.706;4.992;2022-10-18T07:41:15;18.60;99.90
14409;DHT22;7289;50.706;4.992;2022-10-18T07:43:45;18.60;99.90
14409;DHT22;7289;50.706;4.992;2022-10-18T07:46:16;18.70;99.90
14409;DHT22;7289;50.706;4.992;2022-10-18T07:48:44;18.70;99.90
14409;DHT22;7289;50.706;4.992;2022-10-18T07:51:13;18.80;99.90
14409;DHT22;7289;50.706;4.992;2022-10-18T07:53:42;18.90;99.90
14409;DHT22;7289;50.706;4.992;2022-10-18T07:56:12;19.00;99.90
14409;DHT22;7289;50.706;4.992;2022-10-18T07:58:42;19.00;99.90
14409;DHT22;7289;50.706;4.992;2022-10-18T08:01:12;19.10;99.90
14409;DHT22;7289;50.706;4.992;2022-10-18T08:03:42;19.10;99.90
14409;DHT22;7289;50.706;4.992;2022-10-18T08:06:12;19.20;99.90
14409;DHT22;7289;50.706;4.992;2022-10-18T08:08:41;19.20;99.90
14409;DHT22;7289;50.706;4.992;2022-10-18T08:11:11;19.30;99.90
14409;DHT22;7289;50.706;4.992;2022-10-18T08:13:40;19.40;99.90
14409;DHT22;7289;50.706;4.992;2022-10-18T08:16:10;19.50;99.90
14409;DHT22;7289;50.706;4.992;2022-10-18T08:18:39;19.40;99.90
14409;DHT22;7289;50.706;4.992;2022-10-18T08:21:10;19.50;99.90
14409;DHT22;7289;50.706;4.992;2022-10-18T08:23:39;19.40;99.90
14409;DHT22;7289;50.706;4.992;2022-10-18T08:26:09;19.50;99.90
14409;DHT22;7289;50.706;4.992;2022-10-18T08:28:38;19.50;99.90
14409;DHT22;7289;50.706;4.992;2022-10-18T08:31:16;19.50;99.90
14409;DHT22;7289;50.706;4.992;2022-10-18T08:33:45;19.60;99.90
14409;DHT22;7289;50.706;4.992;2022-10-18T08:36:16;19.70;99.90
14409;DHT22;7289;50.706;4.992;2022-10-18T08:38:45;19.90;99.90
14409;DHT22;7289;50.706;4.992;2022-10-18T08:44:06;20.10;99.90
14409;DHT22;7289;50.706;4.992;2022-10-18T08:46:43;20.20;99.90
14409;DHT22;7289;50.706;4.992;2022-10-18T08:49:23;20.30;99.90
14409;DHT22;7289;50.706;4.992;2022-10-18T08:51:56;20.30;99.90
14409;DHT22;7289;50.706;4.992;2022-10-18T08:54:30;20.50;99.90
14409;DHT22;7289;50.706;4.992;2022-10-18T08:57:02;20.50;99.90
14409;DHT22;7289;50.706;4.992;2022-10-18T08:59:37;20.60;99.90
14409;DHT22;7289;50.706;4.992;2022-10-18T09:02:15;20.60;99.90
14409;DHT22;7289;50.706;4.992;2022-10-18T09:04:50;20.90;99.90
14409;DHT22;7289;50.706;4.992;2022-10-18T09:07:36;21.10;99.90
14409;DHT22;7289;50.706;4.992;2022-10-18T09:10:18;21.00;99.90
14409;DHT22;7289;50.706;4.992;2022-10-18T09:13:01;21.10;99.90
14409;DHT22;7289;50.706;4.992;2022-10-18T09:15:38;20.80;99.90
14409;DHT22;7289;50.706;4.992;2022-10-18T09:18:20;20.60;99.90
14409;DHT22;7289;50.706;4.992;2022-10-18T09:20:52;20.60;99.90
14409;DHT22;7289;50.706;4.992;2022-10-18T09:23:32;20.60;99.90
14409;DHT22;7289;50.706;4.992;2022-10-18T09:26:09;20.50;99.90
14409;DHT22;7289;50.706;4.992;2022-10-18T09:28:50;20.60;99.90
14409;DHT22;7289;50.706;4.992;2022-10-18T09:31:30;20.60;99.90
14409;DHT22;7289;50.706;4.992;2022-10-18T09:34:12;20.10;99.90
14409;DHT22;7289;50.706;4.992;2022-10-18T09:36:43;20.20;99.90
14409;DHT22;7289;50.706;4.992;2022-10-18T09:39:15;20.40;99.90
14409;DHT22;7289;50.706;4.992;2022-10-18T09:41:49;20.50;99.90
14409;DHT22;7289;50.706;4.992;2022-10-18T09:44:22;20.60;99.90
14409;DHT22;7289;50.706;4.992;2022-10-18T09:46:54;20.70;99.90
14409;DHT22;7289;50.706;4.992;2022-10-18T09:49:28;20.50;99.90
14409;DHT22;7289;50.706;4.992;2022-10-18T09:52:00;20.40;99.90
14409;DHT22;7289;50.706;4.992;2022-10-18T09:54:34;20.40;99.90
14409;DHT22;7289;50.706;4.992;2022-10-18T09:57:09;20.10;99.90
14409;DHT22;7289;50.706;4.992;2022-10-18T09:59:40;20.30;99.90
14409;DHT22;7289;50.706;4.992;2022-10-18T10:02:12;20.40;99.90
14409;DHT22;7289;50.706;4.992;2022-10-18T10:04:41;20.60;99.90
14409;DHT22;7289;50.706;4.992;2022-10-18T10:07:12;20.80;99.90
14409;DHT22;7289;50.706;4.992;2022-10-18T10:09:44;20.90;99.90
14409;DHT22;7289;50.706;4.992;2022-10-18T10:12:28;21.00;99.90
14409;DHT22;7289;50.706;4.992;2022-10-18T10:15:07;20.90;99.90
14409;DHT22;7289;50.706;4.992;2022-10-18T10:17:36;20.90;99.90
14409;DHT22;7289;50.706;4.992;2022-10-18T10:20:14;20.80;99.90
14409;DHT22;7289;50.706;4.992;2022-10-18T10:22:46;20.70;99.90
14409;DHT22;7289;50.706;4.992;2022-10-18T10:25:22;20.60;99.90
14409;DHT22;7289;50.706;4.992;2022-10-18T10:27:53;20.70;99.90
14409;DHT22;7289;50.706;4.992;2022-10-18T10:30:25;20.50;99.90
14409;DHT22;7289;50.706;4.992;2022-10-18T10:32:54;20.30;99.90
14409;DHT22;7289;50.706;4.992;2022-10-18T10:35:28;19.90;99.90
14409;DHT22;7289;50.706;4.992;2022-10-18T10:38:22;20.40;99.90
14409;DHT22;7289;50.706;4.992;2022-10-18T10:40:53;20.30;99.90
14409;DHT22;7289;50.706;4.992;2022-10-18T10:43:23;20.30;99.90
14409;DHT22;7289;50.706;4.992;2022-10-18T10:46:10;20.50;99.90
14409;DHT22;7289;50.706;4.992;2022-10-18T10:48:50;20.60;99.90
14409;DHT22;7289;50.706;4.992;2022-10-18T10:51:39;20.60;99.90
14409;DHT22;7289;50.706;4.992;2022-10-18T10:54:12;20.50;99.90
14409;DHT22;7289;50.706;4.992;2022-10-18T10:56:53;20.40;99.90
14409;DHT22;7289;50.706;4.992;2022-10-18T10:59:24;20.40;99.90
14409;DHT22;7289;50.706;4.992;2022-10-18T11:02:15;20.30;99.90
14409;DHT22;7289;50.706;4.992;2022-10-18T11:04:47;20.10;99.90
14409;DHT22;7289;50.706;4.992;2022-10-18T11:07:22;20.00;99.90
14409;DHT22;7289;50.706;4.992;2022-10-18T11:09:58;19.60;99.90
14409;DHT22;7289;50.706;4.992;2022-10-18T11:12:32;19.40;99.90
14409;DHT22;7289;50.706;4.992;2022-10-18T11:15:17;19.00;99.90
14409;DHT22;7289;50.706;4.992;2022-10-18T11:17:56;19.10;99.90
14409;DHT22;7289;50.706;4.992;2022-10-18T11:20:28;19.30;99.90
14409;DHT22;7289;50.706;4.992;2022-10-18T11:23:00;19.70;99.90
14409;DHT22;7289;50.706;4.992;2022-10-18T11:25:56;20.10;99.90
14409;DHT22;7289;50.706;4.992;2022-10-18T11:28:42;20.30;99.90
14409;DHT22;7289;50.706;4.992;2022-10-18T11:31:20;20.10;99.90
14409;DHT22;7289;50.706;4.992;2022-10-18T11:34:01;19.60;99.90
14409;DHT22;7289;50.706;4.992;2022-10-18T11:36:40;19.60;99.90
14409;DHT22;7289;50.706;4.992;2022-10-18T11:39:43;19.80;99.90
14409;DHT22;7289;50.706;4.992;2022-10-18T11:42:18;19.90;99.90
14409;DHT22;7289;50.706;4.992;2022-10-18T11:44:55;19.60;99.90
14409;DHT22;7289;50.706;4.992;2022-10-18T11:47:34;19.60;99.90
14409;DHT22;7289;50.706;4.992;2022-10-18T11:50:11;19.80;99.90
14409;DHT22;7289;50.706;4.992;2022-10-18T11:52:49;20.10;99.90
14409;DHT22;7289;50.706;4.992;2022-10-18T11:55:34;20.40;99.90
14409;DHT22;7289;50.706;4.992;2022-10-18T11:58:17;20.60;99.90
14409;DHT22;7289;50.706;4.992;2022-10-18T12:00:54;20.30;99.90
14409;DHT22;7289;50.706;4.992;2022-10-18T12:03:36;20.40;99.90
14409;DHT22;7289;50.706;4.992;2022-10-18T12:06:12;20.60;99.90
14409;DHT22;7289;50.706;4.992;2022-10-18T12:08:44;20.60;99.90
14409;DHT22;7289;50.706;4.992;2022-10-18T12:11:16;20.80;99.90
14409;DHT22;7289;50.706;4.992;2022-10-18T12:13:48;20.80;99.90
14409;DHT22;7289;50.706;4.992;2022-10-18T12:16:21;20.90;99.90
14409;DHT22;7289;50.706;4.992;2022-10-18T12:19:15;21.10;99.90
14409;DHT22;7289;50.706;4.992;2022-10-18T12:21:54;21.10;99.90
14409;DHT22;7289;50.706;4.992;2022-10-18T12:24:24;21.30;99.90
14409;DHT22;7289;50.706;4.992;2022-10-18T12:26:58;21.50;99.90
14409;DHT22;7289;50.706;4.992;2022-10-18T12:29:30;21.60;99.90
14409;DHT22;7289;50.706;4.992;2022-10-18T12:32:07;21.40;99.90
14409;DHT22;7289;50.706;4.992;2022-10-18T12:34:41;21.10;99.90
14409;DHT22;7289;50.706;4.992;2022-10-18T12:37:29;21.10;99.90
14409;DHT22;7289;50.706;4.992;2022-10-18T12:40:05;21.20;99.90
14409;DHT22;7289;50.706;4.992;2022-10-18T12:42:43;21.10;99.90
14409;DHT22;7289;50.706;4.992;2022-10-18T12:45:23;21.20;99.90
14409;DHT22;7289;50.706;4.992;2022-10-18T12:47:57;21.20;99.90
14409;DHT22;7289;50.706;4.992;2022-10-18T12:50:30;21.00;99.90
14409;DHT22;7289;50.706;4.992;2022-10-18T12:53:06;21.00;99.90
14409;DHT22;7289;50.706;4.992;2022-10-18T12:55:42;21.10;99.90
14409;DHT22;7289;50.706;4.992;2022-10-18T12:58:31;21.10;99.90
14409;DHT22;7289;50.706;4.992;2022-10-18T13:01:02;21.10;99.90
14409;DHT22;7289;50.706;4.992;2022-10-18T13:03:41;21.10;99.90
14409;DHT22;7289;50.706;4.992;2022-10-18T13:06:16;21.00;99.90
14409;DHT22;7289;50.706;4.992;2022-10-18T13:08:45;21.10;99.90
14409;DHT22;7289;50.706;4.992;2022-10-18T13:11:31;21.30;99.90
14409;DHT22;7289;50.706;4.992;2022-10-18T13:14:21;21.40;99.90
14409;DHT22;7289;50.706;4.992;2022-10-18T13:16:53;21.60;99.90
14409;DHT22;7289;50.706;4.992;2022-10-18T13:19:29;21.90;99.90
14409;DHT22;7289;50.706;4.992;2022-10-18T13:22:13;21.80;99.90
14409;DHT22;7289;50.706;4.992;2022-10-18T13:24:56;21.50;99.90
14409;DHT22;7289;50.706;4.992;2022-10-18T13:27:37;21.10;99.90
14409;DHT22;7289;50.706;4.992;2022-10-18T13:30:18;21.10;99.90
14409;DHT22;7289;50.706;4.992;2022-10-18T13:32:54;20.80;99.90
14409;DHT22;7289;50.706;4.992;2022-10-18T13:35:45;20.70;99.90
14409;DHT22;7289;50.706;4.992;2022-10-18T13:38:40;20.50;99.90
14409;DHT22;7289;50.706;4.992;2022-10-18T13:41:12;20.50;99.90
14409;DHT22;7289;50.706;4.992;2022-10-18T13:44:21;20.70;99.90
14409;DHT22;7289;50.706;4.992;2022-10-18T13:47:33;20.70;99.90
14409;DHT22;7289;50.706;4.992;2022-10-18T13:50:32;20.70;99.90
14409;DHT22;7289;50.706;4.992;2022-10-18T13:53:20;20.60;99.90
14409;DHT22;7289;50.706;4.992;2022-10-18T13:56:00;20.70;99.90
14409;DHT22;7289;50.706;4.992;2022-10-18T13:58:42;20.80;99.90
14409;DHT22;7289;50.706;4.992;2022-10-18T14:01:37;20.70;99.90
14409;DHT22;7289;50.706;4.992;2022-10-18T14:04:30;20.70;99.90
14409;DHT22;7289;50.706;4.992;2022-10-18T14:07:02;20.70;99.90
14409;DHT22;7289;50.706;4.992;2022-10-18T14:09:43;20.50;99.90
14409;DHT22;7289;50.706;4.992;2022-10-18T14:12:21;20.50;99.90
14409;DHT22;7289;50.706;4.992;2022-10-18T14:14:57;20.30;99.90
14409;DHT22;7289;50.706;4.992;2022-10-18T14:17:33;20.30;99.90
14409;DHT22;7289;50.706;4.992;2022-10-18T14:20:14;20.20;99.90
14409;DHT22;7289;50.706;4.992;2022-10-18T14:22:46;20.40;99.90
14409;DHT22;7289;50.706;4.992;2022-10-18T14:25:21;20.50;99.90
14409;DHT22;7289;50.706;4.992;2022-10-18T14:28:02;20.50;99.90
14409;DHT22;7289;50.706;4.992;2022-10-18T14:30:34;20.60;99.90
14409;DHT22;7289;50.706;4.992;2022-10-18T14:33:03;20.40;99.90
14409;DHT22;7289;50.706;4.992;2022-10-18T14:35:32;20.30;99.90
14409;DHT22;7289;50.706;4.992;2022-10-18T14:38:01;20.20;99.90
14409;DHT22;7289;50.706;4.992;2022-10-18T14:40:34;20.30;99.90
14409;DHT22;7289;50.706;4.992;2022-10-18T14:43:08;20.30;99.90
14409;DHT22;7289;50.706;4.992;2022-10-18T14:45:37;20.40;99.90
14409;DHT22;7289;50.706;4.992;2022-10-18T14:48:17;20.50;99.90
14409;DHT22;7289;50.706;4.992;2022-10-18T14:50:53;20.40;99.90
14409;DHT22;7289;50.706;4.992;2022-10-18T14:53:27;20.30;99.90
14409;DHT22;7289;50.706;4.992;2022-10-18T14:56:00;20.30;99.90
14409;DHT22;7289;50.706;4.992;2022-10-18T14:58:30;20.30;99.90
14409;DHT22;7289;50.706;4.992;2022-10-18T15:00:59;20.20;99.90
14409;DHT22;7289;50.706;4.992;2022-10-18T15:03:31;20.30;99.90
14409;DHT22;7289;50.706;4.992;2022-10-18T15:06:03;20.30;99.90
14409;DHT22;7289;50.706;4.992;2022-10-18T15:08:35;20.20;99.90
14409;DHT22;7289;50.706;4.992;2022-10-18T15:11:07;20.10;99.90
14409;DHT22;7289;50.706;4.992;2022-10-18T15:13:46;19.90;99.90
14409;DHT22;7289;50.706;4.992;2022-10-18T15:16:16;19.60;99.90
14409;DHT22;7289;50.706;4.992;2022-10-18T15:19:01;19.60;99.90
14409;DHT22;7289;50.706;4.992;2022-10-18T15:21:30;19.60;99.90
14409;DHT22;7289;50.706;4.992;2022-10-18T15:24:30;19.60;99.90
14409;DHT22;7289;50.706;4.992;2022-10-18T15:27:11;19.50;99.90
14409;DHT22;7289;50.706;4.992;2022-10-18T15:29:40;19.40;99.90
14409;DHT22;7289;50.706;4.992;2022-10-18T15:32:17;19.40;99.90
14409;DHT22;7289;50.706;4.992;2022-10-18T15:34:46;19.30;99.90
14409;DHT22;7289;50.706;4.992;2022-10-18T15:37:18;19.20;99.90
14409;DHT22;7289;50.706;4.992;2022-10-18T15:40:24;19.20;99.90
14409;DHT22;7289;50.706;4.992;2022-10-18T15:42:58;19.10;99.90
14409;DHT22;7289;50.706;4.992;2022-10-18T15:45:29;19.00;99.90
14409;DHT22;7289;50.706;4.992;2022-10-18T15:48:20;18.90;99.90
14409;DHT22;7289;50.706;4.992;2022-10-18T15:50:50;18.80;99.90
14409;DHT22;7289;50.706;4.992;2022-10-18T15:53:34;18.80;99.90
14409;DHT22;7289;50.706;4.992;2022-10-18T15:56:05;18.70;99.90
14409;DHT22;7289;50.706;4.992;2022-10-18T15:58:40;18.60;99.90
14409;DHT22;7289;50.706;4.992;2022-10-18T16:01:15;18.50;99.90
14409;DHT22;7289;50.706;4.992;2022-10-18T16:03:44;18.50;99.90
14409;DHT22;7289;50.706;4.992;2022-10-18T16:06:14;18.40;99.90
14409;DHT22;7289;50.706;4.992;2022-10-18T16:08:47;18.30;99.90
14409;DHT22;7289;50.706;4.992;2022-10-18T16:11:17;18.20;99.90
14409;DHT22;7289;50.706;4.992;2022-10-18T16:13:48;18.20;99.90
14409;DHT22;7289;50.706;4.992;2022-10-18T16:16:21;18.10;99.90
14409;DHT22;7289;50.706;4.992;2022-10-18T16:18:50;18.00;99.90
14409;DHT22;7289;50.706;4.992;2022-10-18T16:21:21;17.90;99.90
14409;DHT22;7289;50.706;4.992;2022-10-18T16:23:49;17.80;99.90
14409;DHT22;7289;50.706;4.992;2022-10-18T16:26:19;17.70;99.90
14409;DHT22;7289;50.706;4.992;2022-10-18T16:28:49;17.50;99.90